Robert E. Mcallister — WDC8669 — position and weather

sailwx.info

Track history (hours):
 
Tides and Currents Weather Stations Pressure Air Temp Water Temp Dewpoint Dewpoint Depression Visibility Wind Speed Wind Dir Waves Ship Positions

Robert E. Mcallister

Owner: McAllister Towing & Transportation, Staten Island, NY. More information available from US FCC via Universal Licensing System and Coast Guard Vessel Documentation Center.

Last reported at 2018-Feb-22 13:00 UTC. Time now 2018-Feb-22 13:07 UTC.
Position N 39°50' W 075°23'.

; draft 4.3 m.

Type: Tug. MMSI: 367091120.

Date/timePositionNaut miles runAvg speedWind from/ knotsBaromVisibWave heightAir tempDewpointWater temp
2018-Feb-22 13:00N 39°50' W 075°23'0 0.0
2018-Feb-22 12:30N 39°50' W 075°23'0 0.0
2018-Feb-22 12:00N 39°50' W 075°23'0 0.0
2018-Feb-22 11:30N 39°50' W 075°23'0 0.0
2018-Feb-22 11:00N 39°50' W 075°23'0 0.0
2018-Feb-22 10:30N 39°50' W 075°23'0 0.0
2018-Feb-22 10:00N 39°50' W 075°23'0 0.0
2018-Feb-22 09:30N 39°50' W 075°23'1 2.9
2018-Feb-22 09:00N 39°49' W 075°24'0 0.0
2018-Feb-22 08:30N 39°49' W 075°24'0 0.0
2018-Feb-22 08:00N 39°49' W 075°24'0 0.3
2018-Feb-22 07:30N 39°49' W 075°25'0 1.0
2018-Feb-22 07:00N 39°48' W 075°25'1 1.1
2018-Feb-22 06:30N 39°48' W 075°26'0 0.0
2018-Feb-22 06:00N 39°48' W 075°26'0 0.0
2018-Feb-22 05:30N 39°48' W 075°26'3 6.5
2018-Feb-22 05:00N 39°46' W 075°29'611.3
2018-Feb-22 04:30N 39°40' W 075°31'510.1
2018-Feb-22 04:00N 39°36' W 075°34'3 6.1
2018-Feb-22 03:30N 39°33' W 075°33'0 0.9
2018-Feb-22 03:00N 39°33' W 075°33'2 4.8
2018-Feb-22 02:30N 39°35' W 075°35'0 0.0
2018-Feb-22 02:00N 39°35' W 075°35'0 0.0
2018-Feb-22 01:30N 39°35' W 075°35'0 0.0
2018-Feb-22 01:00N 39°35' W 075°35'0 0.0
2018-Feb-22 00:30N 39°35' W 075°35'0 0.0
2018-Feb-22 00:00N 39°35' W 075°35'0 0.0
2018-Feb-21 23:30N 39°35' W 075°35'0 0.0
2018-Feb-21 23:00N 39°35' W 075°35'0 0.4
2018-Feb-21 22:31N 39°35' W 075°35'3 5.4
2018-Feb-21 22:00N 39°38' W 075°35'510.9
2018-Feb-21 21:30N 39°42' W 075°31'510.3
2018-Feb-21 21:01N 39°47' W 075°28'3 4.7
2018-Feb-21 20:17N 39°49' W 075°24'0 0.4
2018-Feb-21 20:00N 39°49' W 075°24'0 0.9
2018-Feb-21 19:30N 39°48' W 075°24'0 0.8
2018-Feb-21 19:00N 39°48' W 075°25'2 3.8
2018-Feb-21 18:30N 39°49' W 075°23'0 0.2
2018-Feb-21 18:00N 39°50' W 075°23'1 3.0
2018-Feb-21 17:30N 39°50' W 075°21'1 2.0
2018-Feb-21 17:00N 39°51' W 075°20'2 5.0
2018-Feb-21 16:30N 39°50' W 075°23'0 0.0
2018-Feb-21 16:00N 39°50' W 075°23'0 0.0
2018-Feb-21 15:30N 39°50' W 075°23'0 0.0
2018-Feb-21 15:00N 39°50' W 075°23'0 0.0
2018-Feb-21 14:30N 39°50' W 075°23'0 0.0
2018-Feb-21 14:00N 39°50' W 075°23'0 0.0
2018-Feb-21 13:30N 39°50' W 075°23'0 0.0
2018-Feb-21 13:00N 39°50' W 075°23'0 0.0
2018-Feb-21 12:30N 39°50' W 075°23'0 0.0
2018-Feb-21 12:00N 39°50' W 075°23'0 0.0
2018-Feb-21 11:30N 39°50' W 075°23'0 0.0
2018-Feb-21 11:00N 39°50' W 075°23'0 0.0
2018-Feb-21 10:30N 39°50' W 075°23'0 0.0
2018-Feb-21 10:00N 39°50' W 075°23'0 0.0
2018-Feb-21 09:30N 39°50' W 075°23'0 0.1
2018-Feb-21 09:00N 39°50' W 075°23'2 4.2
2018-Feb-21 08:30N 39°48' W 075°25'0 0.0
2018-Feb-21 08:00N 39°48' W 075°25'0 0.0
2018-Feb-21 07:30N 39°48' W 075°25'0 0.2
2018-Feb-21 07:00N 39°48' W 075°25'1 1.8
2018-Feb-21 06:30N 39°48' W 075°26'1 1.7
2018-Feb-21 06:00N 39°48' W 075°25'2 4.2
2018-Feb-21 05:31N 39°50' W 075°23'0 0.0
2018-Feb-21 05:00N 39°50' W 075°23'0 0.0
2018-Feb-21 04:30N 39°50' W 075°23'4 7.7
2018-Feb-21 04:01N 39°51' W 075°18'4 7.9
2018-Feb-21 03:31N 39°52' W 075°13'0 0.6
2018-Feb-21 03:00N 39°52' W 075°13'2 4.6
2018-Feb-21 02:30N 39°51' W 075°16'0 0.2
2018-Feb-21 02:00N 39°51' W 075°16'0 0.0
2018-Feb-21 01:30N 39°51' W 075°16'0 0.0
2018-Feb-21 01:00N 39°51' W 075°16'0 0.0
2018-Feb-21 00:31N 39°51' W 075°16'0 0.0
2018-Feb-21 00:00N 39°51' W 075°16'0 0.0
2018-Feb-20 23:31N 39°51' W 075°16'0 0.0
2018-Feb-20 23:01N 39°51' W 075°16'0 1.0
2018-Feb-20 22:30N 39°51' W 075°16'5 9.0
2018-Feb-20 22:00N 39°50' W 075°22'2 3.8
2018-Feb-20 21:30N 39°49' W 075°24'1 2.4
2018-Feb-20 21:00N 39°50' W 075°23'0 0.0
2018-Feb-20 20:30N 39°50' W 075°23'0 0.0
2018-Feb-20 20:00N 39°50' W 075°23'0 0.0
2018-Feb-20 19:30N 39°50' W 075°23'0 0.0
2018-Feb-20 19:00N 39°50' W 075°23'0 0.0
2018-Feb-20 18:30N 39°50' W 075°23'0 0.0
2018-Feb-20 18:00N 39°50' W 075°23'0 0.0
2018-Feb-20 17:31N 39°50' W 075°23'0 0.0
2018-Feb-20 17:00N 39°50' W 075°23'0 0.0
2018-Feb-20 16:31N 39°50' W 075°23'0 0.0
2018-Feb-20 16:00N 39°50' W 075°23'0 0.0
2018-Feb-20 15:30N 39°50' W 075°23'0 0.0
2018-Feb-20 15:00N 39°50' W 075°23'1 2.5
2018-Feb-20 14:30N 39°49' W 075°24'0 0.6
2018-Feb-20 14:00N 39°49' W 075°24'3 6.1
2018-Feb-20 13:30N 39°51' W 075°21'1 2.3
2018-Feb-20 13:00N 39°51' W 075°19'0 0.0
2018-Feb-20 12:30N 39°51' W 075°19'0 0.0
2018-Feb-20 12:00N 39°51' W 075°19'0 0.0
2018-Feb-20 11:30N 39°51' W 075°19'0 0.0
2018-Feb-20 11:01N 39°51' W 075°19'1 1.6
2018-Feb-20 10:30N 39°51' W 075°20'0 0.2
2018-Feb-20 10:00N 39°51' W 075°20'1 1.6
2018-Feb-20 09:30N 39°51' W 075°21'1 2.0
2018-Feb-20 09:01N 39°50' W 075°22'1 1.1
2018-Feb-20 08:30N 39°50' W 075°21'1 2.6
2018-Feb-20 08:00N 39°50' W 075°23'0 0.0
2018-Feb-20 07:30N 39°50' W 075°23'0 0.0
2018-Feb-20 07:01N 39°50' W 075°23'0 0.0
2018-Feb-20 06:31N 39°50' W 075°23'0 0.0
2018-Feb-20 06:01N 39°50' W 075°23'0 0.0
2018-Feb-20 05:30N 39°50' W 075°23'0 0.0
2018-Feb-20 05:00N 39°50' W 075°23'0 0.0
2018-Feb-20 04:31N 39°50' W 075°23'0 0.0
2018-Feb-20 04:01N 39°50' W 075°23'0 0.0
2018-Feb-20 03:30N 39°50' W 075°23'0 0.0
2018-Feb-20 03:00N 39°50' W 075°23'0 0.0
2018-Feb-20 02:30N 39°50' W 075°23'0 0.0
2018-Feb-20 02:01N 39°50' W 075°23'0 0.0
2018-Feb-20 01:30N 39°50' W 075°23'0 0.0
2018-Feb-20 01:00N 39°50' W 075°23'0 0.0
2018-Feb-20 00:30N 39°50' W 075°23'0 0.0
2018-Feb-20 00:00N 39°50' W 075°23'0 0.0
2018-Feb-19 23:30N 39°50' W 075°23'0 0.0
2018-Feb-19 23:01N 39°50' W 075°23'0 0.0
2018-Feb-19 22:30N 39°50' W 075°23'0 0.0
2018-Feb-19 22:00N 39°50' W 075°23'0 0.0
2018-Feb-19 21:30N 39°50' W 075°23'0 0.0
2018-Feb-19 21:00N 39°50' W 075°23'0 0.0
2018-Feb-19 20:30N 39°50' W 075°23'0 0.0
2018-Feb-19 20:00N 39°50' W 075°23'0 0.0
2018-Feb-19 19:30N 39°50' W 075°23'510.5
2018-Feb-19 19:00N 39°46' W 075°28'611.5
2018-Feb-19 18:30N 39°41' W 075°31'510.6
2018-Feb-19 18:00N 39°36' W 075°34'1 3.0
2018-Feb-19 17:30N 39°35' W 075°36'0 0.1
2018-Feb-19 17:00N 39°35' W 075°36'0 0.0
2018-Feb-19 16:30N 39°35' W 075°36'0 0.0
2018-Feb-19 16:00N 39°35' W 075°36'0 0.0
2018-Feb-19 15:30N 39°35' W 075°36'0 0.0
2018-Feb-19 15:00N 39°35' W 075°36'0 0.0
2018-Feb-19 14:30N 39°35' W 075°36'0 0.0
2018-Feb-19 14:00N 39°35' W 075°36'0 0.0
2018-Feb-19 13:30N 39°35' W 075°36'0 0.0
2018-Feb-19 13:00N 39°35' W 075°36'0 0.0
2018-Feb-19 12:30N 39°35' W 075°36'0 0.0
2018-Feb-19 12:00N 39°35' W 075°36'0 0.0
2018-Feb-19 11:30N 39°35' W 075°36'0 0.0
2018-Feb-19 11:01N 39°35' W 075°36'0 0.0
2018-Feb-19 10:30N 39°35' W 075°36'0 0.0
2018-Feb-19 10:00N 39°35' W 075°36'0 0.0
2018-Feb-19 09:30N 39°35' W 075°36'0 0.0
2018-Feb-19 09:00N 39°35' W 075°36'0 0.0
2018-Feb-19 08:30N 39°35' W 075°36'0 0.0
2018-Feb-19 08:00N 39°35' W 075°36'0 0.0
2018-Feb-19 07:30N 39°35' W 075°36'0 0.0
2018-Feb-19 07:00N 39°35' W 075°36'0 0.0
2018-Feb-19 06:30N 39°35' W 075°36'0 0.0
2018-Feb-19 06:00N 39°35' W 075°36'0 0.0
2018-Feb-19 05:30N 39°35' W 075°36'0 0.0
2018-Feb-19 05:00N 39°35' W 075°36'0 0.0
2018-Feb-19 04:30N 39°35' W 075°36'0 0.0
2018-Feb-19 04:00N 39°35' W 075°36'0 0.0
2018-Feb-19 03:30N 39°35' W 075°36'0 0.0
2018-Feb-19 03:00N 39°35' W 075°36'0 0.0
2018-Feb-19 02:31N 39°35' W 075°36'0 0.0
2018-Feb-19 02:00N 39°35' W 075°36'0 0.0
2018-Feb-19 01:30N 39°35' W 075°36'0 0.0
2018-Feb-19 01:00N 39°35' W 075°36'0 0.0
2018-Feb-19 00:30N 39°35' W 075°36'0 0.0
2018-Feb-19 00:00N 39°35' W 075°36'0 0.0
2018-Feb-18 23:30N 39°35' W 075°36'0 0.0
2018-Feb-18 23:00N 39°35' W 075°36'0 0.0
2018-Feb-18 22:30N 39°35' W 075°36'0 0.0
2018-Feb-18 22:00N 39°35' W 075°36'0 0.0
2018-Feb-18 21:29N 39°35' W 075°36'0 0.0
2018-Feb-18 21:00N 39°35' W 075°36'0 0.0
2018-Feb-18 20:30N 39°35' W 075°36'0 0.0
2018-Feb-18 20:00N 39°35' W 075°36'0 0.0
2018-Feb-18 19:30N 39°35' W 075°36'0 0.0
2018-Feb-18 19:00N 39°35' W 075°36'0 0.0
2018-Feb-18 18:30N 39°35' W 075°36'0 0.0
2018-Feb-18 18:00N 39°35' W 075°36'0 0.0
2018-Feb-18 17:30N 39°35' W 075°36'0 0.0
2018-Feb-18 17:00N 39°35' W 075°36'0 0.0
2018-Feb-18 16:30N 39°35' W 075°36'0 0.0
2018-Feb-18 16:00N 39°35' W 075°36'0 0.0
2018-Feb-18 15:30N 39°35' W 075°36'0 0.0
2018-Feb-18 15:00N 39°35' W 075°36'1 1.5
2018-Feb-18 14:30N 39°35' W 075°35'1 2.1
2018-Feb-18 14:00N 39°36' W 075°34'3 6.8
2018-Feb-18 13:30N 39°39' W 075°33'4 8.4
2018-Feb-18 13:00N 39°43' W 075°31'5 9.1
2018-Feb-18 12:30N 39°47' W 075°28'5 9.6
2018-Feb-18 12:00N 39°50' W 075°23'0 0.0
2018-Feb-18 11:31N 39°50' W 075°23'0 0.0
2018-Feb-18 11:01N 39°50' W 075°23'0 0.0
2018-Feb-18 10:30N 39°50' W 075°23'0 0.0
2018-Feb-18 10:00N 39°50' W 075°23'0 0.0
2018-Feb-18 09:29N 39°50' W 075°23'0 0.0
2018-Feb-18 09:00N 39°50' W 075°23'0 0.0
2018-Feb-18 08:30N 39°50' W 075°23'0 0.0
2018-Feb-18 08:00N 39°50' W 075°23'0 0.0
2018-Feb-18 07:30N 39°50' W 075°23'0 0.0
2018-Feb-18 07:01N 39°50' W 075°23'0 0.0
2018-Feb-18 06:30N 39°50' W 075°23'0 0.0
2018-Feb-18 06:01N 39°50' W 075°23'0 0.0
2018-Feb-18 05:30N 39°50' W 075°23'0 0.0
2018-Feb-18 05:00N 39°50' W 075°23'0 0.0
2018-Feb-18 04:30N 39°50' W 075°23'0 0.0
2018-Feb-18 04:00N 39°50' W 075°23'0 0.0
2018-Feb-18 03:30N 39°50' W 075°23'0 0.0
2018-Feb-18 02:59N 39°50' W 075°23'0 0.0
2018-Feb-18 02:29N 39°50' W 075°23'0 0.0
2018-Feb-18 02:00N 39°50' W 075°23'0 0.0
2018-Feb-18 01:30N 39°50' W 075°23'0 0.0
2018-Feb-18 01:00N 39°50' W 075°23'0 0.0
2018-Feb-18 00:30N 39°50' W 075°23'0 0.0
2018-Feb-18 00:00N 39°50' W 075°23'0 0.0
2018-Feb-17 23:30N 39°50' W 075°23'3 6.8
2018-Feb-17 23:00N 39°51' W 075°19'611.7
2018-Feb-17 22:30N 39°53' W 075°12'3 6.6
2018-Feb-17 22:00N 39°54' W 075°08'0 0.3
2018-Feb-17 21:30N 39°54' W 075°08'0 0.0
2018-Feb-17 21:00N 39°54' W 075°08'1 2.3
2018-Feb-17 20:30N 39°53' W 075°09'5 9.2
2018-Feb-17 20:00N 39°52' W 075°14'5 9.9
2018-Feb-17 19:30N 39°51' W 075°21'2 4.3
2018-Feb-17 19:00N 39°50' W 075°23'0 0.0
2018-Feb-17 18:30N 39°50' W 075°23'0 0.0
2018-Feb-17 18:00N 39°50' W 075°23'0 0.0
2018-Feb-17 17:30N 39°50' W 075°23'0 0.0
2018-Feb-17 17:00N 39°50' W 075°23'0 0.0
2018-Feb-17 16:30N 39°50' W 075°23'0 0.0
2018-Feb-17 16:00N 39°50' W 075°23'0 0.0
2018-Feb-17 15:31N 39°50' W 075°23'0 0.0
2018-Feb-17 15:00N 39°50' W 075°23'0 0.0
2018-Feb-17 14:31N 39°50' W 075°23'0 0.0
2018-Feb-17 14:01N 39°50' W 075°23'0 0.0
2018-Feb-17 13:30N 39°50' W 075°23'0 0.0
2018-Feb-17 13:00N 39°50' W 075°23'0 0.0
2018-Feb-17 12:30N 39°50' W 075°23'0 0.0
2018-Feb-17 12:00N 39°50' W 075°23'0 0.0
2018-Feb-17 06:38N 39°50' W 075°23'8 6.5
2018-Feb-17 05:27N 39°44' W 075°30'510.0
2018-Feb-17 05:00N 39°40' W 075°32'4 9.0
2018-Feb-17 04:30N 39°36' W 075°34'1 2.5
2018-Feb-17 04:00N 39°35' W 075°35'0 0.2
2018-Feb-17 03:30N 39°35' W 075°35'0 0.5
2018-Feb-17 03:00N 39°35' W 075°35'1 2.5
2018-Feb-17 02:30N 39°35' W 075°34'4 7.5
2018-Feb-17 02:01N 39°39' W 075°33'5 9.9
2018-Feb-17 01:29N 39°44' W 075°30'17 2.6
2018-Feb-16 18:54N 39°54' W 075°12'0 0.0
2018-Feb-16 18:30N 39°54' W 075°12'0 0.0
2018-Feb-16 18:00N 39°54' W 075°12'0 0.0
2018-Feb-16 17:30N 39°54' W 075°12'0 0.0
2018-Feb-16 17:00N 39°54' W 075°12'0 0.0
2018-Feb-16 16:30N 39°54' W 075°12'4 8.7
2018-Feb-16 16:00N 39°51' W 075°16'0 0.0
2018-Feb-16 15:30N 39°51' W 075°16'0 0.0
2018-Feb-16 15:00N 39°51' W 075°16'2 3.9
2018-Feb-16 14:31N 39°51' W 075°18'2 4.1
2018-Feb-16 14:00N 39°51' W 075°16'4 7.3
2018-Feb-16 13:30N 39°53' W 075°12'1 1.6
2018-Feb-16 13:00N 39°54' W 075°12'0 0.0
2018-Feb-16 12:30N 39°54' W 075°12'0 0.0
2018-Feb-16 12:00N 39°54' W 075°12'0 0.0
2018-Feb-16 11:30N 39°54' W 075°12'0 0.0
2018-Feb-16 11:00N 39°54' W 075°12'0 0.0
2018-Feb-16 10:31N 39°54' W 075°12'0 0.0
2018-Feb-16 10:01N 39°54' W 075°12'0 0.0
2018-Feb-16 09:30N 39°54' W 075°12'0 0.0
2018-Feb-16 09:00N 39°54' W 075°12'0 0.0
2018-Feb-16 08:30N 39°54' W 075°12'0 0.0
2018-Feb-16 08:01N 39°54' W 075°12'0 0.0
2018-Feb-16 07:30N 39°54' W 075°12'0 0.0
2018-Feb-16 07:00N 39°54' W 075°12'0 0.0
2018-Feb-16 06:30N 39°54' W 075°12'0 0.0
2018-Feb-16 06:00N 39°54' W 075°12'0 0.0
2018-Feb-16 05:30N 39°54' W 075°12'2 3.4
2018-Feb-16 05:00N 39°53' W 075°10'3 6.9
2018-Feb-16 04:30N 39°56' W 075°08'0 0.2
2018-Feb-16 04:00N 39°56' W 075°08'2 3.4
2018-Feb-16 03:31N 39°54' W 075°08'0 0.0
2018-Feb-16 03:01N 39°54' W 075°08'0 0.4
2018-Feb-16 02:31N 39°54' W 075°08'3 6.5
2018-Feb-16 02:00N 39°54' W 075°12'0 0.2
2018-Feb-16 01:31N 39°54' W 075°12'0 0.0
2018-Feb-15 23:06N 39°54' W 075°12'0 0.0
2018-Feb-15 23:00N 39°54' W 075°12'0 0.0
2018-Feb-15 22:30N 39°54' W 075°12'0 0.0
2018-Feb-15 22:00N 39°54' W 075°12'0 0.0
2018-Feb-15 21:31N 39°54' W 075°12'0 0.0
2018-Feb-15 21:00N 39°54' W 075°12'0 0.0
2018-Feb-15 20:30N 39°54' W 075°12'0 0.0
2018-Feb-15 20:00N 39°54' W 075°12'0 0.0
2018-Feb-15 19:30N 39°54' W 075°12'0 0.0
2018-Feb-15 19:01N 39°54' W 075°12'0 0.0
2018-Feb-15 18:31N 39°54' W 075°12'0 0.0
2018-Feb-15 18:01N 39°54' W 075°12'0 0.0
2018-Feb-15 17:31N 39°54' W 075°12'0 0.0
2018-Feb-15 17:01N 39°54' W 075°12'0 0.0
2018-Feb-15 16:30N 39°54' W 075°12'0 0.0
2018-Feb-15 16:00N 39°54' W 075°12'0 0.0
2018-Feb-15 15:31N 39°54' W 075°12'0 0.0
2018-Feb-15 15:01N 39°54' W 075°12'0 0.0
2018-Feb-15 14:30N 39°54' W 075°12'0 0.0
2018-Feb-15 14:00N 39°54' W 075°12'0 0.0
2018-Feb-15 13:30N 39°54' W 075°12'0 0.0
2018-Feb-15 13:00N 39°54' W 075°12'0 0.0
2018-Feb-15 12:30N 39°54' W 075°12'0 0.0
2018-Feb-15 12:01N 39°54' W 075°12'0 0.0
2018-Feb-15 11:30N 39°54' W 075°12'0 0.0
2018-Feb-15 11:00N 39°54' W 075°12'0 0.0
2018-Feb-15 10:30N 39°54' W 075°12'0 0.0
2018-Feb-15 10:00N 39°54' W 075°12'0 0.0
2018-Feb-15 09:30N 39°54' W 075°12'0 0.0
2018-Feb-15 09:00N 39°54' W 075°12'0 0.0
2018-Feb-15 08:30N 39°54' W 075°12'0 0.0
2018-Feb-15 08:00N 39°54' W 075°12'0 0.0
2018-Feb-15 07:30N 39°54' W 075°12'0 0.0
2018-Feb-15 07:00N 39°54' W 075°12'0 0.0
2018-Feb-15 06:30N 39°54' W 075°12'2 4.8
2018-Feb-15 06:00N 39°52' W 075°14'510.8
2018-Feb-15 05:31N 39°51' W 075°20'3 6.8
2018-Feb-15 05:00N 39°49' W 075°24'0 0.3
2018-Feb-15 04:30N 39°49' W 075°24'0 0.5
2018-Feb-15 04:01N 39°49' W 075°24'1 2.7
2018-Feb-15 03:31N 39°50' W 075°23'0 0.0
2018-Feb-15 03:00N 39°50' W 075°23'2 4.8
2018-Feb-15 02:30N 39°51' W 075°20'3 5.5
2018-Feb-15 02:01N 39°51' W 075°17'0 0.9
2018-Feb-15 01:31N 39°51' W 075°16'0 0.8
2018-Feb-15 01:00N 39°51' W 075°16'0 0.0
2018-Feb-15 00:31N 39°51' W 075°16'2 4.8
2018-Feb-15 00:01N 39°51' W 075°19'1 2.3
2018-Feb-14 23:30N 39°51' W 075°20'0 0.1
2018-Feb-14 23:00N 39°51' W 075°20'4 7.6
2018-Feb-14 22:30N 39°51' W 075°15'4 7.7
2018-Feb-14 22:00N 39°54' W 075°12'0 0.0
2018-Feb-14 21:31N 39°54' W 075°12'0 0.0
2018-Feb-14 21:01N 39°54' W 075°12'0 0.0
2018-Feb-14 20:31N 39°54' W 075°12'0 0.0
2018-Feb-14 20:00N 39°54' W 075°12'0 0.0
2018-Feb-14 19:30N 39°54' W 075°12'0 0.0
2018-Feb-14 19:00N 39°54' W 075°12'0 0.0
2018-Feb-14 18:31N 39°54' W 075°12'0 0.0
2018-Feb-14 18:01N 39°54' W 075°12'0 0.0
2018-Feb-14 17:31N 39°54' W 075°12'0 0.0
2018-Feb-14 17:01N 39°54' W 075°12'0 0.0
2018-Feb-14 16:30N 39°54' W 075°12'0 0.0
2018-Feb-14 16:01N 39°54' W 075°12'0 0.0
2018-Feb-14 15:30N 39°54' W 075°12'0 0.0
2018-Feb-14 15:01N 39°54' W 075°12'0 0.0
2018-Feb-14 14:31N 39°54' W 075°12'0 0.0
2018-Feb-14 14:01N 39°54' W 075°12'0 0.0
2018-Feb-14 13:31N 39°54' W 075°12'0 0.0
2018-Feb-14 13:00N 39°54' W 075°12'0 0.0
2018-Feb-14 12:31N 39°54' W 075°12'0 0.0
2018-Feb-14 12:00N 39°54' W 075°12'0 0.0
2018-Feb-14 11:30N 39°54' W 075°12'0 0.0
2018-Feb-14 11:00N 39°54' W 075°12'0 0.0
2018-Feb-14 10:30N 39°54' W 075°12'0 0.0
2018-Feb-14 10:01N 39°54' W 075°12'0 0.0
2018-Feb-14 09:31N 39°54' W 075°12'0 0.0
2018-Feb-14 09:01N 39°54' W 075°12'0 0.0
2018-Feb-14 08:31N 39°54' W 075°12'0 0.0
2018-Feb-14 08:00N 39°54' W 075°12'0 0.0
2018-Feb-14 07:30N 39°54' W 075°12'0 0.0
2018-Feb-14 07:00N 39°54' W 075°12'0 0.0
2018-Feb-14 06:31N 39°54' W 075°12'0 0.0
2018-Feb-14 06:00N 39°54' W 075°12'0 0.0
2018-Feb-14 05:30N 39°54' W 075°12'0 0.0
2018-Feb-14 05:01N 39°54' W 075°12'0 0.0
2018-Feb-14 04:30N 39°54' W 075°12'0 0.0
2018-Feb-14 04:00N 39°54' W 075°12'0 0.0
2018-Feb-14 03:30N 39°54' W 075°12'0 0.0
2018-Feb-14 03:00N 39°54' W 075°12'0 0.0
2018-Feb-14 02:30N 39°54' W 075°12'1 1.4
2018-Feb-14 02:00N 39°53' W 075°12'5 9.5
2018-Feb-14 01:30N 39°51' W 075°17'5 9.4
2018-Feb-14 01:00N 39°49' W 075°23'1 2.6
2018-Feb-14 00:30N 39°49' W 075°24'0 0.0
2018-Feb-14 00:00N 39°49' W 075°24'0 0.0
2018-Feb-13 23:30N 39°49' W 075°24'1 1.2
2018-Feb-13 22:59N 39°48' W 075°25'0 0.0
2018-Feb-13 22:30N 39°48' W 075°25'0 0.0
2018-Feb-13 22:00N 39°48' W 075°25'1 1.4
2018-Feb-13 21:31N 39°49' W 075°24'0 0.0
2018-Feb-13 21:01N 39°49' W 075°24'0 0.0
2018-Feb-13 20:30N 39°49' W 075°24'0 0.3
2018-Feb-13 20:00N 39°49' W 075°25'0 0.2
2018-Feb-13 19:30N 39°49' W 075°24'0 0.0
2018-Feb-13 19:01N 39°49' W 075°24'1 2.9
2018-Feb-13 18:31N 39°50' W 075°23'0 0.0
2018-Feb-13 18:00N 39°50' W 075°23'0 0.0
2018-Feb-13 17:31N 39°50' W 075°23'0 0.0
2018-Feb-13 17:00N 39°50' W 075°23'0 0.0
2018-Feb-13 16:30N 39°50' W 075°23'0 0.0
2018-Feb-13 16:00N 39°50' W 075°23'0 0.0
2018-Feb-13 15:30N 39°50' W 075°23'0 0.0
2018-Feb-13 15:01N 39°50' W 075°23'0 0.0
2018-Feb-13 14:31N 39°50' W 075°23'0 0.2
2018-Feb-13 14:00N 39°50' W 075°23'2 4.6
2018-Feb-13 13:30N 39°51' W 075°20'0 0.2
2018-Feb-13 13:01N 39°51' W 075°20'0 0.8
2018-Feb-13 12:30N 39°51' W 075°21'2 3.9
2018-Feb-13 12:00N 39°50' W 075°23'0 0.1
2018-Feb-13 11:31N 39°50' W 075°23'0 0.0
2018-Feb-13 11:00N 39°50' W 075°23'2 3.0
2018-Feb-13 10:30N 39°49' W 075°24'1 1.1
2018-Feb-13 10:00N 39°48' W 075°25'0 0.0
2018-Feb-13 09:30N 39°48' W 075°25'0 0.0
2018-Feb-13 09:00N 39°48' W 075°25'1 1.1
2018-Feb-13 08:30N 39°48' W 075°26'2 3.9
2018-Feb-13 08:00N 39°47' W 075°28'1 1.3
2018-Feb-13 07:30N 39°47' W 075°27'4 7.7
2018-Feb-13 07:01N 39°50' W 075°23'612.3
2018-Feb-13 06:31N 39°51' W 075°15'612.4
2018-Feb-13 06:01N 39°54' W 075°08'0 0.3
2018-Feb-13 05:30N 39°54' W 075°08'0 0.9
2018-Feb-13 05:00N 39°54' W 075°08'1 1.8
2018-Feb-13 04:30N 39°53' W 075°09'3 6.2
2018-Feb-13 04:01N 39°52' W 075°13'1 2.9
2018-Feb-13 03:31N 39°51' W 075°14'4 7.0
2018-Feb-13 03:00N 39°53' W 075°10'1 1.8
2018-Feb-13 02:30N 39°53' W 075°09'2 4.8
2018-Feb-13 02:00N 39°54' W 075°12'0 0.0
2018-Feb-13 01:31N 39°54' W 075°12'0 0.0
2018-Feb-13 01:00N 39°54' W 075°12'0 0.0
2018-Feb-13 00:30N 39°54' W 075°12'0 0.0
2018-Feb-13 00:00N 39°54' W 075°12'0 0.0
2018-Feb-12 23:30N 39°54' W 075°12'0 0.0
2018-Feb-12 23:00N 39°54' W 075°12'0 0.0
2018-Feb-12 22:30N 39°54' W 075°12'0 0.0
2018-Feb-12 22:00N 39°54' W 075°12'0 0.0
2018-Feb-12 21:31N 39°54' W 075°12'0 0.0
2018-Feb-12 21:01N 39°54' W 075°12'0 0.0
2018-Feb-12 20:30N 39°54' W 075°12'0 0.0
2018-Feb-12 20:01N 39°54' W 075°12'0 0.0
2018-Feb-12 19:30N 39°54' W 075°12'0 0.0
2018-Feb-12 19:00N 39°54' W 075°12'0 0.0
2018-Feb-12 18:31N 39°54' W 075°12'0 0.0
2018-Feb-12 18:01N 39°54' W 075°12'0 0.0
2018-Feb-12 17:30N 39°54' W 075°12'0 0.0
2018-Feb-12 17:00N 39°54' W 075°12'1 2.3
2018-Feb-12 16:30N 39°53' W 075°11'3 7.0
2018-Feb-12 16:01N 39°56' W 075°08'4 8.2
2018-Feb-12 15:30N 39°59' W 075°04'5 9.0
2018-Feb-12 15:00N 40°02' W 075°00'4 9.0
2018-Feb-12 14:30N 40°04' W 074°55'4 8.9
2018-Feb-12 14:00N 40°06' W 074°50'4 7.9
2018-Feb-12 13:30N 40°08' W 074°45'0 0.5
2018-Feb-12 13:00N 40°08' W 074°45'  
Track history (hours):
 
Tides and Currents Weather Stations Pressure Air Temp Water Temp Dewpoint Dewpoint Depression Visibility Wind Speed Wind Dir Waves Ship Positions

Robert E. Mcallister

Owner: McAllister Towing & Transportation, Staten Island, NY. More information available from US FCC via Universal Licensing System and Coast Guard Vessel Documentation Center.

Last reported at 2018-Feb-22 13:00 UTC. Time now 2018-Feb-22 13:07 UTC.
Position N 39°50' W 075°23'.

; draft 4.3 m.

Type: Tug. MMSI: 367091120.

Date/timePositionNaut miles runAvg speedWind from/ knotsBaromVisibWave heightAir tempDewpointWater temp
2018-Feb-22 13:00N 39°50' W 075°23'0 0.0
2018-Feb-22 12:30N 39°50' W 075°23'0 0.0
2018-Feb-22 12:00N 39°50' W 075°23'0 0.0
2018-Feb-22 11:30N 39°50' W 075°23'0 0.0
2018-Feb-22 11:00N 39°50' W 075°23'0 0.0
2018-Feb-22 10:30N 39°50' W 075°23'0 0.0
2018-Feb-22 10:00N 39°50' W 075°23'0 0.0
2018-Feb-22 09:30N 39°50' W 075°23'1 2.9
2018-Feb-22 09:00N 39°49' W 075°24'0 0.0
2018-Feb-22 08:30N 39°49' W 075°24'0 0.0
2018-Feb-22 08:00N 39°49' W 075°24'0 0.3
2018-Feb-22 07:30N 39°49' W 075°25'0 1.0
2018-Feb-22 07:00N 39°48' W 075°25'1 1.1
2018-Feb-22 06:30N 39°48' W 075°26'0 0.0
2018-Feb-22 06:00N 39°48' W 075°26'0 0.0
2018-Feb-22 05:30N 39°48' W 075°26'3 6.5
2018-Feb-22 05:00N 39°46' W 075°29'611.3
2018-Feb-22 04:30N 39°40' W 075°31'510.1
2018-Feb-22 04:00N 39°36' W 075°34'3 6.1
2018-Feb-22 03:30N 39°33' W 075°33'0 0.9
2018-Feb-22 03:00N 39°33' W 075°33'2 4.8
2018-Feb-22 02:30N 39°35' W 075°35'0 0.0
2018-Feb-22 02:00N 39°35' W 075°35'0 0.0
2018-Feb-22 01:30N 39°35' W 075°35'0 0.0
2018-Feb-22 01:00N 39°35' W 075°35'0 0.0
2018-Feb-22 00:30N 39°35' W 075°35'0 0.0
2018-Feb-22 00:00N 39°35' W 075°35'0 0.0
2018-Feb-21 23:30N 39°35' W 075°35'0 0.0
2018-Feb-21 23:00N 39°35' W 075°35'0 0.4
2018-Feb-21 22:31N 39°35' W 075°35'3 5.4
2018-Feb-21 22:00N 39°38' W 075°35'510.9
2018-Feb-21 21:30N 39°42' W 075°31'510.3
2018-Feb-21 21:01N 39°47' W 075°28'3 4.7
2018-Feb-21 20:17N 39°49' W 075°24'0 0.4
2018-Feb-21 20:00N 39°49' W 075°24'0 0.9
2018-Feb-21 19:30N 39°48' W 075°24'0 0.8
2018-Feb-21 19:00N 39°48' W 075°25'2 3.8
2018-Feb-21 18:30N 39°49' W 075°23'0 0.2
2018-Feb-21 18:00N 39°50' W 075°23'1 3.0
2018-Feb-21 17:30N 39°50' W 075°21'1 2.0
2018-Feb-21 17:00N 39°51' W 075°20'2 5.0
2018-Feb-21 16:30N 39°50' W 075°23'0 0.0
2018-Feb-21 16:00N 39°50' W 075°23'0 0.0
2018-Feb-21 15:30N 39°50' W 075°23'0 0.0
2018-Feb-21 15:00N 39°50' W 075°23'0 0.0
2018-Feb-21 14:30N 39°50' W 075°23'0 0.0
2018-Feb-21 14:00N 39°50' W 075°23'0 0.0
2018-Feb-21 13:30N 39°50' W 075°23'0 0.0
2018-Feb-21 13:00N 39°50' W 075°23'0 0.0
2018-Feb-21 12:30N 39°50' W 075°23'0 0.0
2018-Feb-21 12:00N 39°50' W 075°23'0 0.0
2018-Feb-21 11:30N 39°50' W 075°23'0 0.0
2018-Feb-21 11:00N 39°50' W 075°23'0 0.0
2018-Feb-21 10:30N 39°50' W 075°23'0 0.0
2018-Feb-21 10:00N 39°50' W 075°23'0 0.0
2018-Feb-21 09:30N 39°50' W 075°23'0 0.1
2018-Feb-21 09:00N 39°50' W 075°23'2 4.2
2018-Feb-21 08:30N 39°48' W 075°25'0 0.0
2018-Feb-21 08:00N 39°48' W 075°25'0 0.0
2018-Feb-21 07:30N 39°48' W 075°25'0 0.2
2018-Feb-21 07:00N 39°48' W 075°25'1 1.8
2018-Feb-21 06:30N 39°48' W 075°26'1 1.7
2018-Feb-21 06:00N 39°48' W 075°25'2 4.2
2018-Feb-21 05:31N 39°50' W 075°23'0 0.0
2018-Feb-21 05:00N 39°50' W 075°23'0 0.0
2018-Feb-21 04:30N 39°50' W 075°23'4 7.7
2018-Feb-21 04:01N 39°51' W 075°18'4 7.9
2018-Feb-21 03:31N 39°52' W 075°13'0 0.6
2018-Feb-21 03:00N 39°52' W 075°13'2 4.6
2018-Feb-21 02:30N 39°51' W 075°16'0 0.2
2018-Feb-21 02:00N 39°51' W 075°16'0 0.0
2018-Feb-21 01:30N 39°51' W 075°16'0 0.0
2018-Feb-21 01:00N 39°51' W 075°16'0 0.0
2018-Feb-21 00:31N 39°51' W 075°16'0 0.0
2018-Feb-21 00:00N 39°51' W 075°16'0 0.0
2018-Feb-20 23:31N 39°51' W 075°16'0 0.0
2018-Feb-20 23:01N 39°51' W 075°16'0 1.0
2018-Feb-20 22:30N 39°51' W 075°16'5 9.0
2018-Feb-20 22:00N 39°50' W 075°22'2 3.8
2018-Feb-20 21:30N 39°49' W 075°24'1 2.4
2018-Feb-20 21:00N 39°50' W 075°23'0 0.0
2018-Feb-20 20:30N 39°50' W 075°23'0 0.0
2018-Feb-20 20:00N 39°50' W 075°23'0 0.0
2018-Feb-20 19:30N 39°50' W 075°23'0 0.0
2018-Feb-20 19:00N 39°50' W 075°23'0 0.0
2018-Feb-20 18:30N 39°50' W 075°23'0 0.0
2018-Feb-20 18:00N 39°50' W 075°23'0 0.0
2018-Feb-20 17:31N 39°50' W 075°23'0 0.0
2018-Feb-20 17:00N 39°50' W 075°23'0 0.0
2018-Feb-20 16:31N 39°50' W 075°23'0 0.0
2018-Feb-20 16:00N 39°50' W 075°23'0 0.0
2018-Feb-20 15:30N 39°50' W 075°23'0 0.0
2018-Feb-20 15:00N 39°50' W 075°23'1 2.5
2018-Feb-20 14:30N 39°49' W 075°24'0 0.6
2018-Feb-20 14:00N 39°49' W 075°24'3 6.1
2018-Feb-20 13:30N 39°51' W 075°21'1 2.3
2018-Feb-20 13:00N 39°51' W 075°19'0 0.0
2018-Feb-20 12:30N 39°51' W 075°19'0 0.0
2018-Feb-20 12:00N 39°51' W 075°19'0 0.0
2018-Feb-20 11:30N 39°51' W 075°19'0 0.0
2018-Feb-20 11:01N 39°51' W 075°19'1 1.6
2018-Feb-20 10:30N 39°51' W 075°20'0 0.2
2018-Feb-20 10:00N 39°51' W 075°20'1 1.6
2018-Feb-20 09:30N 39°51' W 075°21'1 2.0
2018-Feb-20 09:01N 39°50' W 075°22'1 1.1
2018-Feb-20 08:30N 39°50' W 075°21'1 2.6
2018-Feb-20 08:00N 39°50' W 075°23'0 0.0
2018-Feb-20 07:30N 39°50' W 075°23'0 0.0
2018-Feb-20 07:01N 39°50' W 075°23'0 0.0
2018-Feb-20 06:31N 39°50' W 075°23'0 0.0
2018-Feb-20 06:01N 39°50' W 075°23'0 0.0
2018-Feb-20 05:30N 39°50' W 075°23'0 0.0
2018-Feb-20 05:00N 39°50' W 075°23'0 0.0
2018-Feb-20 04:31N 39°50' W 075°23'0 0.0
2018-Feb-20 04:01N 39°50' W 075°23'0 0.0
2018-Feb-20 03:30N 39°50' W 075°23'0 0.0
2018-Feb-20 03:00N 39°50' W 075°23'0 0.0
2018-Feb-20 02:30N 39°50' W 075°23'0 0.0
2018-Feb-20 02:01N 39°50' W 075°23'0 0.0
2018-Feb-20 01:30N 39°50' W 075°23'0 0.0
2018-Feb-20 01:00N 39°50' W 075°23'0 0.0
2018-Feb-20 00:30N 39°50' W 075°23'0 0.0
2018-Feb-20 00:00N 39°50' W 075°23'0 0.0
2018-Feb-19 23:30N 39°50' W 075°23'0 0.0
2018-Feb-19 23:01N 39°50' W 075°23'0 0.0
2018-Feb-19 22:30N 39°50' W 075°23'0 0.0
2018-Feb-19 22:00N 39°50' W 075°23'0 0.0
2018-Feb-19 21:30N 39°50' W 075°23'0 0.0
2018-Feb-19 21:00N 39°50' W 075°23'0 0.0
2018-Feb-19 20:30N 39°50' W 075°23'0 0.0
2018-Feb-19 20:00N 39°50' W 075°23'0 0.0
2018-Feb-19 19:30N 39°50' W 075°23'510.5
2018-Feb-19 19:00N 39°46' W 075°28'611.5
2018-Feb-19 18:30N 39°41' W 075°31'510.6
2018-Feb-19 18:00N 39°36' W 075°34'1 3.0
2018-Feb-19 17:30N 39°35' W 075°36'0 0.1
2018-Feb-19 17:00N 39°35' W 075°36'0 0.0
2018-Feb-19 16:30N 39°35' W 075°36'0 0.0
2018-Feb-19 16:00N 39°35' W 075°36'0 0.0
2018-Feb-19 15:30N 39°35' W 075°36'0 0.0
2018-Feb-19 15:00N 39°35' W 075°36'0 0.0
2018-Feb-19 14:30N 39°35' W 075°36'0 0.0
2018-Feb-19 14:00N 39°35' W 075°36'0 0.0
2018-Feb-19 13:30N 39°35' W 075°36'0 0.0
2018-Feb-19 13:00N 39°35' W 075°36'0 0.0
2018-Feb-19 12:30N 39°35' W 075°36'0 0.0
2018-Feb-19 12:00N 39°35' W 075°36'0 0.0
2018-Feb-19 11:30N 39°35' W 075°36'0 0.0
2018-Feb-19 11:01N 39°35' W 075°36'0 0.0
2018-Feb-19 10:30N 39°35' W 075°36'0 0.0
2018-Feb-19 10:00N 39°35' W 075°36'0 0.0
2018-Feb-19 09:30N 39°35' W 075°36'0 0.0
2018-Feb-19 09:00N 39°35' W 075°36'0 0.0
2018-Feb-19 08:30N 39°35' W 075°36'0 0.0
2018-Feb-19 08:00N 39°35' W 075°36'0 0.0
2018-Feb-19 07:30N 39°35' W 075°36'0 0.0
2018-Feb-19 07:00N 39°35' W 075°36'0 0.0
2018-Feb-19 06:30N 39°35' W 075°36'0 0.0
2018-Feb-19 06:00N 39°35' W 075°36'0 0.0
2018-Feb-19 05:30N 39°35' W 075°36'0 0.0
2018-Feb-19 05:00N 39°35' W 075°36'0 0.0
2018-Feb-19 04:30N 39°35' W 075°36'0 0.0
2018-Feb-19 04:00N 39°35' W 075°36'0 0.0
2018-Feb-19 03:30N 39°35' W 075°36'0 0.0
2018-Feb-19 03:00N 39°35' W 075°36'0 0.0
2018-Feb-19 02:31N 39°35' W 075°36'0 0.0
2018-Feb-19 02:00N 39°35' W 075°36'0 0.0
2018-Feb-19 01:30N 39°35' W 075°36'0 0.0
2018-Feb-19 01:00N 39°35' W 075°36'0 0.0
2018-Feb-19 00:30N 39°35' W 075°36'0 0.0
2018-Feb-19 00:00N 39°35' W 075°36'0 0.0
2018-Feb-18 23:30N 39°35' W 075°36'0 0.0
2018-Feb-18 23:00N 39°35' W 075°36'0 0.0
2018-Feb-18 22:30N 39°35' W 075°36'0 0.0
2018-Feb-18 22:00N 39°35' W 075°36'0 0.0
2018-Feb-18 21:29N 39°35' W 075°36'0 0.0
2018-Feb-18 21:00N 39°35' W 075°36'0 0.0
2018-Feb-18 20:30N 39°35' W 075°36'0 0.0
2018-Feb-18 20:00N 39°35' W 075°36'0 0.0
2018-Feb-18 19:30N 39°35' W 075°36'0 0.0
2018-Feb-18 19:00N 39°35' W 075°36'0 0.0
2018-Feb-18 18:30N 39°35' W 075°36'0 0.0
2018-Feb-18 18:00N 39°35' W 075°36'0 0.0
2018-Feb-18 17:30N 39°35' W 075°36'0 0.0
2018-Feb-18 17:00N 39°35' W 075°36'0 0.0
2018-Feb-18 16:30N 39°35' W 075°36'0 0.0
2018-Feb-18 16:00N 39°35' W 075°36'0 0.0
2018-Feb-18 15:30N 39°35' W 075°36'0 0.0
2018-Feb-18 15:00N 39°35' W 075°36'1 1.5
2018-Feb-18 14:30N 39°35' W 075°35'1 2.1
2018-Feb-18 14:00N 39°36' W 075°34'3 6.8
2018-Feb-18 13:30N 39°39' W 075°33'4 8.4
2018-Feb-18 13:00N 39°43' W 075°31'5 9.1
2018-Feb-18 12:30N 39°47' W 075°28'5 9.6
2018-Feb-18 12:00N 39°50' W 075°23'0 0.0
2018-Feb-18 11:31N 39°50' W 075°23'0 0.0
2018-Feb-18 11:01N 39°50' W 075°23'0 0.0
2018-Feb-18 10:30N 39°50' W 075°23'0 0.0
2018-Feb-18 10:00N 39°50' W 075°23'0 0.0
2018-Feb-18 09:29N 39°50' W 075°23'0 0.0
2018-Feb-18 09:00N 39°50' W 075°23'0 0.0
2018-Feb-18 08:30N 39°50' W 075°23'0 0.0
2018-Feb-18 08:00N 39°50' W 075°23'0 0.0
2018-Feb-18 07:30N 39°50' W 075°23'0 0.0
2018-Feb-18 07:01N 39°50' W 075°23'0 0.0
2018-Feb-18 06:30N 39°50' W 075°23'0 0.0
2018-Feb-18 06:01N 39°50' W 075°23'0 0.0
2018-Feb-18 05:30N 39°50' W 075°23'0 0.0
2018-Feb-18 05:00N 39°50' W 075°23'0 0.0
2018-Feb-18 04:30N 39°50' W 075°23'0 0.0
2018-Feb-18 04:00N 39°50' W 075°23'0 0.0
2018-Feb-18 03:30N 39°50' W 075°23'0 0.0
2018-Feb-18 02:59N 39°50' W 075°23'0 0.0
2018-Feb-18 02:29N 39°50' W 075°23'0 0.0
2018-Feb-18 02:00N 39°50' W 075°23'0 0.0
2018-Feb-18 01:30N 39°50' W 075°23'0 0.0
2018-Feb-18 01:00N 39°50' W 075°23'0 0.0
2018-Feb-18 00:30N 39°50' W 075°23'0 0.0
2018-Feb-18 00:00N 39°50' W 075°23'0 0.0
2018-Feb-17 23:30N 39°50' W 075°23'3 6.8
2018-Feb-17 23:00N 39°51' W 075°19'611.7
2018-Feb-17 22:30N 39°53' W 075°12'3 6.6
2018-Feb-17 22:00N 39°54' W 075°08'0 0.3
2018-Feb-17 21:30N 39°54' W 075°08'0 0.0
2018-Feb-17 21:00N 39°54' W 075°08'1 2.3
2018-Feb-17 20:30N 39°53' W 075°09'5 9.2
2018-Feb-17 20:00N 39°52' W 075°14'5 9.9
2018-Feb-17 19:30N 39°51' W 075°21'2 4.3
2018-Feb-17 19:00N 39°50' W 075°23'0 0.0
2018-Feb-17 18:30N 39°50' W 075°23'0 0.0
2018-Feb-17 18:00N 39°50' W 075°23'0 0.0
2018-Feb-17 17:30N 39°50' W 075°23'0 0.0
2018-Feb-17 17:00N 39°50' W 075°23'0 0.0
2018-Feb-17 16:30N 39°50' W 075°23'0 0.0
2018-Feb-17 16:00N 39°50' W 075°23'0 0.0
2018-Feb-17 15:31N 39°50' W 075°23'0 0.0
2018-Feb-17 15:00N 39°50' W 075°23'0 0.0
2018-Feb-17 14:31N 39°50' W 075°23'0 0.0
2018-Feb-17 14:01N 39°50' W 075°23'0 0.0
2018-Feb-17 13:30N 39°50' W 075°23'0 0.0
2018-Feb-17 13:00N 39°50' W 075°23'0 0.0
2018-Feb-17 12:30N 39°50' W 075°23'0 0.0
2018-Feb-17 12:00N 39°50' W 075°23'0 0.0
2018-Feb-17 06:38N 39°50' W 075°23'8 6.5
2018-Feb-17 05:27N 39°44' W 075°30'510.0
2018-Feb-17 05:00N 39°40' W 075°32'4 9.0
2018-Feb-17 04:30N 39°36' W 075°34'1 2.5
2018-Feb-17 04:00N 39°35' W 075°35'0 0.2
2018-Feb-17 03:30N 39°35' W 075°35'0 0.5
2018-Feb-17 03:00N 39°35' W 075°35'1 2.5
2018-Feb-17 02:30N 39°35' W 075°34'4 7.5
2018-Feb-17 02:01N 39°39' W 075°33'5 9.9
2018-Feb-17 01:29N 39°44' W 075°30'17 2.6
2018-Feb-16 18:54N 39°54' W 075°12'0 0.0
2018-Feb-16 18:30N 39°54' W 075°12'0 0.0
2018-Feb-16 18:00N 39°54' W 075°12'0 0.0
2018-Feb-16 17:30N 39°54' W 075°12'0 0.0
2018-Feb-16 17:00N 39°54' W 075°12'0 0.0
2018-Feb-16 16:30N 39°54' W 075°12'4 8.7
2018-Feb-16 16:00N 39°51' W 075°16'0 0.0
2018-Feb-16 15:30N 39°51' W 075°16'0 0.0
2018-Feb-16 15:00N 39°51' W 075°16'2 3.9
2018-Feb-16 14:31N 39°51' W 075°18'2 4.1
2018-Feb-16 14:00N 39°51' W 075°16'4 7.3
2018-Feb-16 13:30N 39°53' W 075°12'1 1.6
2018-Feb-16 13:00N 39°54' W 075°12'0 0.0
2018-Feb-16 12:30N 39°54' W 075°12'0 0.0
2018-Feb-16 12:00N 39°54' W 075°12'0 0.0
2018-Feb-16 11:30N 39°54' W 075°12'0 0.0
2018-Feb-16 11:00N 39°54' W 075°12'0 0.0
2018-Feb-16 10:31N 39°54' W 075°12'0 0.0
2018-Feb-16 10:01N 39°54' W 075°12'0 0.0
2018-Feb-16 09:30N 39°54' W 075°12'0 0.0
2018-Feb-16 09:00N 39°54' W 075°12'0 0.0
2018-Feb-16 08:30N 39°54' W 075°12'0 0.0
2018-Feb-16 08:01N 39°54' W 075°12'0 0.0
2018-Feb-16 07:30N 39°54' W 075°12'0 0.0
2018-Feb-16 07:00N 39°54' W 075°12'0 0.0
2018-Feb-16 06:30N 39°54' W 075°12'0 0.0
2018-Feb-16 06:00N 39°54' W 075°12'0 0.0
2018-Feb-16 05:30N 39°54' W 075°12'2 3.4
2018-Feb-16 05:00N 39°53' W 075°10'3 6.9
2018-Feb-16 04:30N 39°56' W 075°08'0 0.2
2018-Feb-16 04:00N 39°56' W 075°08'2 3.4
2018-Feb-16 03:31N 39°54' W 075°08'0 0.0
2018-Feb-16 03:01N 39°54' W 075°08'0 0.4
2018-Feb-16 02:31N 39°54' W 075°08'3 6.5
2018-Feb-16 02:00N 39°54' W 075°12'0 0.2
2018-Feb-16 01:31N 39°54' W 075°12'0 0.0
2018-Feb-15 23:06N 39°54' W 075°12'0 0.0
2018-Feb-15 23:00N 39°54' W 075°12'0 0.0
2018-Feb-15 22:30N 39°54' W 075°12'0 0.0
2018-Feb-15 22:00N 39°54' W 075°12'0 0.0
2018-Feb-15 21:31N 39°54' W 075°12'0 0.0
2018-Feb-15 21:00N 39°54' W 075°12'0 0.0
2018-Feb-15 20:30N 39°54' W 075°12'0 0.0
2018-Feb-15 20:00N 39°54' W 075°12'0 0.0
2018-Feb-15 19:30N 39°54' W 075°12'0 0.0
2018-Feb-15 19:01N 39°54' W 075°12'0 0.0
2018-Feb-15 18:31N 39°54' W 075°12'0 0.0
2018-Feb-15 18:01N 39°54' W 075°12'0 0.0
2018-Feb-15 17:31N 39°54' W 075°12'0 0.0
2018-Feb-15 17:01N 39°54' W 075°12'0 0.0
2018-Feb-15 16:30N 39°54' W 075°12'0 0.0
2018-Feb-15 16:00N 39°54' W 075°12'0 0.0
2018-Feb-15 15:31N 39°54' W 075°12'0 0.0
2018-Feb-15 15:01N 39°54' W 075°12'0 0.0
2018-Feb-15 14:30N 39°54' W 075°12'0 0.0
2018-Feb-15 14:00N 39°54' W 075°12'0 0.0
2018-Feb-15 13:30N 39°54' W 075°12'0 0.0
2018-Feb-15 13:00N 39°54' W 075°12'0 0.0
2018-Feb-15 12:30N 39°54' W 075°12'0 0.0
2018-Feb-15 12:01N 39°54' W 075°12'0 0.0
2018-Feb-15 11:30N 39°54' W 075°12'0 0.0
2018-Feb-15 11:00N 39°54' W 075°12'0 0.0
2018-Feb-15 10:30N 39°54' W 075°12'0 0.0
2018-Feb-15 10:00N 39°54' W 075°12'0 0.0
2018-Feb-15 09:30N 39°54' W 075°12'0 0.0
2018-Feb-15 09:00N 39°54' W 075°12'0 0.0
2018-Feb-15 08:30N 39°54' W 075°12'0 0.0
2018-Feb-15 08:00N 39°54' W 075°12'0 0.0
2018-Feb-15 07:30N 39°54' W 075°12'0 0.0
2018-Feb-15 07:00N 39°54' W 075°12'0 0.0
2018-Feb-15 06:30N 39°54' W 075°12'2 4.8
2018-Feb-15 06:00N 39°52' W 075°14'510.8
2018-Feb-15 05:31N 39°51' W 075°20'3 6.8
2018-Feb-15 05:00N 39°49' W 075°24'0 0.3
2018-Feb-15 04:30N 39°49' W 075°24'0 0.5
2018-Feb-15 04:01N 39°49' W 075°24'1 2.7
2018-Feb-15 03:31N 39°50' W 075°23'0 0.0
2018-Feb-15 03:00N 39°50' W 075°23'2 4.8
2018-Feb-15 02:30N 39°51' W 075°20'3 5.5
2018-Feb-15 02:01N 39°51' W 075°17'0 0.9
2018-Feb-15 01:31N 39°51' W 075°16'0 0.8
2018-Feb-15 01:00N 39°51' W 075°16'0 0.0
2018-Feb-15 00:31N 39°51' W 075°16'2 4.8
2018-Feb-15 00:01N 39°51' W 075°19'1 2.3
2018-Feb-14 23:30N 39°51' W 075°20'0 0.1
2018-Feb-14 23:00N 39°51' W 075°20'4 7.6
2018-Feb-14 22:30N 39°51' W 075°15'4 7.7
2018-Feb-14 22:00N 39°54' W 075°12'0 0.0
2018-Feb-14 21:31N 39°54' W 075°12'0 0.0
2018-Feb-14 21:01N 39°54' W 075°12'0 0.0
2018-Feb-14 20:31N 39°54' W 075°12'0 0.0
2018-Feb-14 20:00N 39°54' W 075°12'0 0.0
2018-Feb-14 19:30N 39°54' W 075°12'0 0.0
2018-Feb-14 19:00N 39°54' W 075°12'0 0.0
2018-Feb-14 18:31N 39°54' W 075°12'0 0.0
2018-Feb-14 18:01N 39°54' W 075°12'0 0.0
2018-Feb-14 17:31N 39°54' W 075°12'0 0.0
2018-Feb-14 17:01N 39°54' W 075°12'0 0.0
2018-Feb-14 16:30N 39°54' W 075°12'0 0.0
2018-Feb-14 16:01N 39°54' W 075°12'0 0.0
2018-Feb-14 15:30N 39°54' W 075°12'0 0.0
2018-Feb-14 15:01N 39°54' W 075°12'0 0.0
2018-Feb-14 14:31N 39°54' W 075°12'0 0.0
2018-Feb-14 14:01N 39°54' W 075°12'0 0.0
2018-Feb-14 13:31N 39°54' W 075°12'0 0.0
2018-Feb-14 13:00N 39°54' W 075°12'0 0.0
2018-Feb-14 12:31N 39°54' W 075°12'0 0.0
2018-Feb-14 12:00N 39°54' W 075°12'0 0.0
2018-Feb-14 11:30N 39°54' W 075°12'0 0.0
2018-Feb-14 11:00N 39°54' W 075°12'0 0.0
2018-Feb-14 10:30N 39°54' W 075°12'0 0.0
2018-Feb-14 10:01N 39°54' W 075°12'0 0.0
2018-Feb-14 09:31N 39°54' W 075°12'0 0.0
2018-Feb-14 09:01N 39°54' W 075°12'0 0.0
2018-Feb-14 08:31N 39°54' W 075°12'0 0.0
2018-Feb-14 08:00N 39°54' W 075°12'0 0.0
2018-Feb-14 07:30N 39°54' W 075°12'0 0.0
2018-Feb-14 07:00N 39°54' W 075°12'0 0.0
2018-Feb-14 06:31N 39°54' W 075°12'0 0.0
2018-Feb-14 06:00N 39°54' W 075°12'0 0.0
2018-Feb-14 05:30N 39°54' W 075°12'0 0.0
2018-Feb-14 05:01N 39°54' W 075°12'0 0.0
2018-Feb-14 04:30N 39°54' W 075°12'0 0.0
2018-Feb-14 04:00N 39°54' W 075°12'0 0.0
2018-Feb-14 03:30N 39°54' W 075°12'0 0.0
2018-Feb-14 03:00N 39°54' W 075°12'0 0.0
2018-Feb-14 02:30N 39°54' W 075°12'1 1.4
2018-Feb-14 02:00N 39°53' W 075°12'5 9.5
2018-Feb-14 01:30N 39°51' W 075°17'5 9.4
2018-Feb-14 01:00N 39°49' W 075°23'1 2.6
2018-Feb-14 00:30N 39°49' W 075°24'0 0.0
2018-Feb-14 00:00N 39°49' W 075°24'0 0.0
2018-Feb-13 23:30N 39°49' W 075°24'1 1.2
2018-Feb-13 22:59N 39°48' W 075°25'0 0.0
2018-Feb-13 22:30N 39°48' W 075°25'0 0.0
2018-Feb-13 22:00N 39°48' W 075°25'1 1.4
2018-Feb-13 21:31N 39°49' W 075°24'0 0.0
2018-Feb-13 21:01N 39°49' W 075°24'0 0.0
2018-Feb-13 20:30N 39°49' W 075°24'0 0.3
2018-Feb-13 20:00N 39°49' W 075°25'0 0.2
2018-Feb-13 19:30N 39°49' W 075°24'0 0.0
2018-Feb-13 19:01N 39°49' W 075°24'1 2.9
2018-Feb-13 18:31N 39°50' W 075°23'0 0.0
2018-Feb-13 18:00N 39°50' W 075°23'0 0.0
2018-Feb-13 17:31N 39°50' W 075°23'0 0.0
2018-Feb-13 17:00N 39°50' W 075°23'0 0.0
2018-Feb-13 16:30N 39°50' W 075°23'0 0.0
2018-Feb-13 16:00N 39°50' W 075°23'0 0.0
2018-Feb-13 15:30N 39°50' W 075°23'0 0.0
2018-Feb-13 15:01N 39°50' W 075°23'0 0.0
2018-Feb-13 14:31N 39°50' W 075°23'0 0.2
2018-Feb-13 14:00N 39°50' W 075°23'2 4.6
2018-Feb-13 13:30N 39°51' W 075°20'0 0.2
2018-Feb-13 13:01N 39°51' W 075°20'0 0.8
2018-Feb-13 12:30N 39°51' W 075°21'2 3.9
2018-Feb-13 12:00N 39°50' W 075°23'0 0.1
2018-Feb-13 11:31N 39°50' W 075°23'0 0.0
2018-Feb-13 11:00N 39°50' W 075°23'2 3.0
2018-Feb-13 10:30N 39°49' W 075°24'1 1.1
2018-Feb-13 10:00N 39°48' W 075°25'0 0.0
2018-Feb-13 09:30N 39°48' W 075°25'0 0.0
2018-Feb-13 09:00N 39°48' W 075°25'1 1.1
2018-Feb-13 08:30N 39°48' W 075°26'2 3.9
2018-Feb-13 08:00N 39°47' W 075°28'1 1.3
2018-Feb-13 07:30N 39°47' W 075°27'4 7.7
2018-Feb-13 07:01N 39°50' W 075°23'612.3
2018-Feb-13 06:31N 39°51' W 075°15'612.4
2018-Feb-13 06:01N 39°54' W 075°08'0 0.3
2018-Feb-13 05:30N 39°54' W 075°08'0 0.9
2018-Feb-13 05:00N 39°54' W 075°08'1 1.8
2018-Feb-13 04:30N 39°53' W 075°09'3 6.2
2018-Feb-13 04:01N 39°52' W 075°13'1 2.9
2018-Feb-13 03:31N 39°51' W 075°14'4 7.0
2018-Feb-13 03:00N 39°53' W 075°10'1 1.8
2018-Feb-13 02:30N 39°53' W 075°09'2 4.8
2018-Feb-13 02:00N 39°54' W 075°12'0 0.0
2018-Feb-13 01:31N 39°54' W 075°12'0 0.0
2018-Feb-13 01:00N 39°54' W 075°12'0 0.0
2018-Feb-13 00:30N 39°54' W 075°12'0 0.0
2018-Feb-13 00:00N 39°54' W 075°12'0 0.0
2018-Feb-12 23:30N 39°54' W 075°12'0 0.0
2018-Feb-12 23:00N 39°54' W 075°12'0 0.0
2018-Feb-12 22:30N 39°54' W 075°12'0 0.0
2018-Feb-12 22:00N 39°54' W 075°12'0 0.0
2018-Feb-12 21:31N 39°54' W 075°12'0 0.0
2018-Feb-12 21:01N 39°54' W 075°12'0 0.0
2018-Feb-12 20:30N 39°54' W 075°12'0 0.0
2018-Feb-12 20:01N 39°54' W 075°12'0 0.0
2018-Feb-12 19:30N 39°54' W 075°12'0 0.0
2018-Feb-12 19:00N 39°54' W 075°12'0 0.0
2018-Feb-12 18:31N 39°54' W 075°12'0 0.0
2018-Feb-12 18:01N 39°54' W 075°12'0 0.0
2018-Feb-12 17:30N 39°54' W 075°12'0 0.0
2018-Feb-12 17:00N 39°54' W 075°12'1 2.3
2018-Feb-12 16:30N 39°53' W 075°11'3 7.0
2018-Feb-12 16:01N 39°56' W 075°08'4 8.2
2018-Feb-12 15:30N 39°59' W 075°04'5 9.0
2018-Feb-12 15:00N 40°02' W 075°00'4 9.0
2018-Feb-12 14:30N 40°04' W 074°55'4 8.9
2018-Feb-12 14:00N 40°06' W 074°50'4 7.9
2018-Feb-12 13:30N 40°08' W 074°45'0 0.5
2018-Feb-12 13:00N 40°08' W 074°45'  

Dump ship's entire track history